Time;durP1;ratioP1;P1;durP2;ratioP2;P2;SDS_P1;SDS_P2;PMS_P1;PMS_P2;Temp;Humidity;BMP_temperature;BMP_pressure;BME280_temperature;BME280_humidity;BME280_pressure;Samples;Min_cycle;Max_cycle;Signal;HPM_P1;HPM_P2
2022/05/27 00:00:20;;;;;;;4.07;1.73;;;20.80;99.90;;;;;;1038881;28;20033;-62
2022/05/27 00:00:51;;;;;;;4.57;1.63;;;20.80;99.90;;;;;;1039005;28;20163;-62
2022/05/27 00:01:28;;;;;;;2.30;1.20;;;20.70;99.90;;;;;;1038809;28;20014;-63
2022/05/27 00:02:00;;;;;;;3.95;1.30;;;20.80;99.90;;;;;;1038355;28;20025;-62
2022/05/27 00:02:31;;;;;;;2.33;1.02;;;20.70;99.90;;;;;;1038339;28;20109;-61
2022/05/27 00:03:01;;;;;;;3.87;1.40;;;20.80;99.90;;;;;;1034306;28;20029;-63
2022/05/27 00:03:32;;;;;;;4.50;1.37;;;20.70;99.90;;;;;;1034742;28;20042;-61
2022/05/27 00:04:04;;;;;;;4.53;1.53;;;20.70;99.90;;;;;;1038469;28;20117;-62
2022/05/27 00:04:36;;;;;;;2.95;1.25;;;20.70;99.90;;;;;;1038599;28;20072;-61
2022/05/27 00:05:07;;;;;;;3.17;1.58;;;20.70;99.90;;;;;;1038757;28;20031;-61
2022/05/27 00:05:38;;;;;;;2.27;1.33;;;20.70;99.90;;;;;;1039022;28;20045;-61
2022/05/27 00:06:09;;;;;;;3.08;1.50;;;20.70;99.90;;;;;;1039074;28;20268;-62
2022/05/27 00:06:39;;;;;;;1.53;0.93;;;20.70;99.90;;;;;;1038914;28;20021;-62
2022/05/27 00:07:10;;;;;;;3.60;1.50;;;20.70;99.90;;;;;;1038995;28;20116;-62
2022/05/27 00:07:41;;;;;;;4.35;1.75;;;20.70;99.90;;;;;;1038748;28;20025;-62
2022/05/27 00:08:11;;;;;;;3.03;1.50;;;20.70;99.90;;;;;;1039216;28;20113;-61
2022/05/27 00:08:42;;;;;;;2.87;1.90;;;20.70;99.90;;;;;;1038737;28;20025;-61
2022/05/27 00:09:13;;;;;;;3.77;1.40;;;20.70;99.90;;;;;;1039111;28;20032;-62
2022/05/27 00:09:43;;;;;;;4.60;1.53;;;20.70;99.90;;;;;;1038687;28;20506;-61
2022/05/27 00:10:14;;;;;;;3.60;1.70;;;20.70;99.90;;;;;;1042920;28;20016;-61
2022/05/27 00:10:45;;;;;;;3.42;1.75;;;20.70;99.90;;;;;;1042876;28;20017;-61
2022/05/27 00:11:16;;;;;;;5.43;1.70;;;20.70;99.90;;;;;;1043313;28;20104;-62
2022/05/27 00:11:47;;;;;;;2.35;1.40;;;20.70;99.90;;;;;;1042666;28;20021;-62
2022/05/27 00:12:17;;;;;;;2.90;1.10;;;20.70;99.90;;;;;;1043304;28;20021;-62
2022/05/27 00:12:48;;;;;;;2.50;1.13;;;20.70;99.90;;;;;;1042707;28;20017;-61
2022/05/27 00:13:18;;;;;;;3.77;1.57;;;20.70;99.90;;;;;;1043355;28;20025;-63
2022/05/27 00:13:51;;;;;;;4.23;1.43;;;20.70;99.90;;;;;;1042790;28;20173;-62
2022/05/27 00:14:21;;;;;;;3.03;1.10;;;20.70;99.90;;;;;;1043143;28;20021;-64
2022/05/27 00:14:52;;;;;;;2.00;1.20;;;20.70;99.90;;;;;;1042875;28;20049;-63
2022/05/27 00:15:22;;;;;;;2.23;1.20;;;20.70;99.90;;;;;;1042816;28;20039;-63
2022/05/27 00:15:53;;;;;;;4.03;1.57;;;20.70;99.90;;;;;;1042415;28;20066;-64
2022/05/27 00:16:24;;;;;;;2.93;1.00;;;20.70;99.90;;;;;;1042955;28;20055;-64
2022/05/27 00:16:54;;;;;;;2.73;1.10;;;20.70;99.90;;;;;;1042516;28;20021;-63
2022/05/27 00:17:25;;;;;;;3.17;1.40;;;20.70;99.90;;;;;;1043022;28;20021;-64
2022/05/27 00:17:55;;;;;;;3.93;1.20;;;20.70;99.90;;;;;;1042817;28;20025;-64
2022/05/27 00:18:26;;;;;;;3.53;1.23;;;20.70;99.90;;;;;;1043139;28;20056;-64
2022/05/27 00:18:58;;;;;;;3.73;1.23;;;20.70;99.90;;;;;;1042861;28;20024;-64
2022/05/27 00:19:28;;;;;;;2.28;1.13;;;20.70;99.90;;;;;;1043157;28;20029;-63
2022/05/27 00:19:59;;;;;;;3.20;1.43;;;20.70;99.90;;;;;;1042810;28;20044;-63
2022/05/27 00:20:29;;;;;;;5.10;1.30;;;20.70;99.90;;;;;;1043100;28;20490;-63
2022/05/27 00:21:00;;;;;;;5.77;1.30;;;20.70;99.90;;;;;;1043022;28;20502;-63
2022/05/27 00:21:31;;;;;;;3.50;1.55;;;20.70;99.90;;;;;;1043289;28;20048;-65
2022/05/27 00:22:02;;;;;;;3.47;1.30;;;20.70;99.90;;;;;;1042739;28;20037;-65
2022/05/27 00:22:32;;;;;;;2.53;1.10;;;20.70;99.90;;;;;;1043230;28;20029;-64
2022/05/27 00:23:03;;;;;;;3.00;1.30;;;20.70;99.90;;;;;;1042891;28;20024;-65
2022/05/27 00:23:36;;;;;;;3.47;1.20;;;20.70;99.90;;;;;;1043065;28;20057;-64
2022/05/27 00:24:06;;;;;;;4.22;1.30;;;20.70;99.90;;;;;;1042564;28;21043;-65
2022/05/27 00:24:37;;;;;;;3.43;1.47;;;20.70;99.90;;;;;;1042878;28;20522;-64
2022/05/27 00:25:08;;;;;;;4.57;1.50;;;20.70;99.90;;;;;;1042664;28;20139;-65
2022/05/27 00:25:39;;;;;;;5.85;1.50;;;20.70;99.90;;;;;;1042626;28;20085;-65
2022/05/27 00:26:10;;;;;;;5.07;1.67;;;20.70;99.90;;;;;;1042954;28;20036;-64
2022/05/27 00:26:40;;;;;;;4.80;1.80;;;20.70;99.90;;;;;;1043154;28;20032;-63
2022/05/27 00:27:11;;;;;;;3.40;1.43;;;20.70;99.90;;;;;;1043020;28;20029;-65
2022/05/27 00:27:41;;;;;;;4.43;1.10;;;20.70;99.90;;;;;;1042798;28;20060;-65
2022/05/27 00:28:12;;;;;;;3.57;1.27;;;20.70;99.90;;;;;;1043103;28;20017;-63
2022/05/27 00:28:43;;;;;;;4.40;1.73;;;20.70;99.90;;;;;;1042804;28;20013;-65
2022/05/27 00:29:13;;;;;;;3.50;1.50;;;20.70;99.90;;;;;;1043333;28;20023;-64
2022/05/27 00:29:44;;;;;;;3.33;1.30;;;20.70;99.90;;;;;;1042781;28;20682;-64
2022/05/27 00:30:14;;;;;;;2.93;1.50;;;20.70;99.90;;;;;;1043154;28;20194;-63
2022/05/27 00:30:45;;;;;;;2.30;1.30;;;20.70;99.90;;;;;;1042716;28;20041;-66
2022/05/27 00:31:18;;;;;;;3.47;1.35;;;20.70;99.90;;;;;;1043224;28;20013;-64
2022/05/27 00:31:49;;;;;;;3.03;1.30;;;20.60;99.90;;;;;;1038252;28;20020;-64
2022/05/27 00:32:20;;;;;;;5.57;1.50;;;20.60;99.90;;;;;;1038835;28;20029;-63
2022/05/27 00:32:51;;;;;;;5.03;2.13;;;20.70;99.90;;;;;;1038228;28;20075;-64
2022/05/27 00:33:22;;;;;;;3.55;1.75;;;20.60;99.90;;;;;;1038835;28;20014;-65
2022/05/27 00:33:53;;;;;;;4.20;1.52;;;20.60;99.90;;;;;;1038559;28;20479;-63
2022/05/27 00:34:23;;;;;;;5.00;1.70;;;20.60;99.90;;;;;;1039206;28;20457;-64
2022/05/27 00:34:54;;;;;;;3.00;1.50;;;20.60;99.90;;;;;;1038831;28;20013;-64
2022/05/27 00:35:24;;;;;;;3.60;1.50;;;20.60;99.90;;;;;;1038923;28;20017;-64
2022/05/27 00:35:55;;;;;;;3.77;1.50;;;20.60;99.90;;;;;;1038693;28;20006;-64
2022/05/27 00:36:26;;;;;;;4.43;1.80;;;20.60;99.90;;;;;;1038665;28;20354;-64
2022/05/27 00:36:56;;;;;;;6.57;1.73;;;20.60;99.90;;;;;;1038603;28;20166;-65
2022/05/27 00:37:27;;;;;;;4.93;1.33;;;20.60;99.90;;;;;;1039105;28;20016;-63
2022/05/27 00:37:58;;;;;;;3.33;1.43;;;20.60;99.90;;;;;;1038293;28;20024;-65
2022/05/27 00:38:28;;;;;;;4.33;1.43;;;20.60;99.90;;;;;;1038603;28;20465;-63
2022/05/27 00:39:01;;;;;;;4.47;1.77;;;20.60;99.90;;;;;;1038361;28;20014;-64
2022/05/27 00:39:32;;;;;;;3.65;1.45;;;20.60;99.90;;;;;;1038750;28;20017;-65
2022/05/27 00:40:04;;;;;;;5.32;1.60;;;20.60;99.90;;;;;;1038594;28;20025;-65
2022/05/27 00:40:52;;;;;;;4.18;1.52;;;20.60;99.90;;;;;;1040224;28;20459;-63
2022/05/27 00:41:23;;;;;;;6.60;1.58;;;20.60;99.90;;;;;;1042876;28;20476;-64
2022/05/27 00:41:53;;;;;;;4.33;1.60;;;20.60;99.90;;;;;;1042965;28;20048;-64
2022/05/27 00:42:24;;;;;;;3.43;1.23;;;20.60;99.90;;;;;;1042892;28;20024;-62
2022/05/27 00:42:54;;;;;;;2.80;1.50;;;20.60;99.90;;;;;;1043204;28;20016;-64
2022/05/27 00:43:25;;;;;;;2.47;1.07;;;20.60;99.90;;;;;;1042773;28;20021;-63
2022/05/27 00:43:56;;;;;;;3.23;1.63;;;20.60;99.90;;;;;;1042865;28;20017;-63
2022/05/27 00:44:26;;;;;;;4.10;1.70;;;20.60;99.90;;;;;;1039555;28;20085;-63
2022/05/27 00:44:57;;;;;;;2.60;1.47;;;20.60;99.90;;;;;;1041720;28;20013;-64
2022/05/27 00:45:27;;;;;;;3.27;1.50;;;20.50;99.90;;;;;;1043000;28;20146;-63
2022/05/27 00:46:05;;;;;;;4.40;1.87;;;20.60;99.90;;;;;;1042900;28;20017;-64
2022/05/27 00:46:38;;;;;;;3.05;1.27;;;20.60;99.90;;;;;;1042966;28;20013;-64
2022/05/27 00:47:14;;;;;;;4.70;2.15;;;20.60;99.90;;;;;;1042894;28;20059;-65
2022/05/27 00:47:47;;;;;;;3.65;1.50;;;20.50;99.90;;;;;;1042711;28;20454;-65
2022/05/27 00:48:20;;;;;;;2.83;1.30;;;20.50;99.90;;;;;;1043089;28;20005;-64
2022/05/27 00:48:55;;;;;;;3.63;1.60;;;20.60;99.90;;;;;;1042925;28;20005;-64
2022/05/27 00:49:27;;;;;;;3.13;1.55;;;20.50;99.90;;;;;;1042688;28;20017;-65
2022/05/27 00:50:03;;;;;;;4.90;1.83;;;20.60;99.90;;;;;;1042900;28;20005;-64
2022/05/27 00:50:38;;;;;;;3.15;1.15;;;20.50;99.90;;;;;;1043002;28;20017;-64
2022/05/27 00:51:21;;;;;;;3.85;1.48;;;20.50;99.90;;;;;;1043032;28;20013;-63
2022/05/27 00:52:00;;;;;;;3.55;1.38;;;20.50;99.90;;;;;;1042503;28;20029;-64
2022/05/27 00:52:34;;;;;;;4.28;1.65;;;20.50;99.90;;;;;;1043361;28;20009;-65
2022/05/27 00:53:06;;;;;;;2.97;1.40;;;20.50;99.90;;;;;;1043467;28;20060;-62
2022/05/27 00:53:48;;;;;;;3.03;1.27;;;20.50;99.90;;;;;;1043576;28;20170;-64
2022/05/27 00:54:23;;;;;;;2.13;1.35;;;20.50;99.90;;;;;;1043567;28;20097;-63
2022/05/27 00:54:54;;;;;;;2.05;1.15;;;20.50;99.90;;;;;;1043157;28;20092;-63
2022/05/27 00:55:28;;;;;;;3.43;1.13;;;20.50;99.90;;;;;;1043613;28;20009;-63
2022/05/27 00:56:00;;;;;;;2.92;1.50;;;20.50;99.90;;;;;;1043257;28;20032;-64
2022/05/27 00:56:34;;;;;;;2.53;1.30;;;20.50;99.90;;;;;;1043896;28;20012;-64
2022/05/27 00:57:10;;;;;;;3.60;1.20;;;20.50;99.90;;;;;;1043408;28;20009;-64
2022/05/27 00:57:52;;;;;;;3.05;1.00;;;20.50;99.90;;;;;;1043750;28;20067;-64
2022/05/27 00:58:44;;;;;;;5.55;1.27;;;20.50;99.90;;;;;;1043853;28;20436;-63
2022/05/27 00:59:32;;;;;;;3.45;1.30;;;20.50;99.90;;;;;;1043586;28;20383;-63
2022/05/27 01:00:12;;;;;;;1.38;0.98;;;20.50;99.90;;;;;;1043337;28;20476;-63
2022/05/27 01:00:43;;;;;;;3.47;1.90;;;20.50;99.90;;;;;;1043627;28;20412;-62
2022/05/27 01:01:15;;;;;;;3.43;1.40;;;20.50;99.90;;;;;;1043586;28;20427;-62
2022/05/27 01:01:45;;;;;;;3.72;1.25;;;20.50;99.90;;;;;;1043544;28;20275;-64
2022/05/27 01:02:18;;;;;;;4.10;1.47;;;20.50;99.90;;;;;;1043261;28;20027;-62
2022/05/27 01:02:49;;;;;;;3.25;1.00;;;20.50;99.90;;;;;;1043580;28;20005;-63
2022/05/27 01:03:21;;;;;;;4.43;1.58;;;20.50;99.90;;;;;;1043577;28;20027;-62
2022/05/27 01:03:54;;;;;;;2.28;1.10;;;20.50;99.90;;;;;;1043863;28;20057;-62
2022/05/27 01:04:27;;;;;;;2.15;1.00;;;20.50;99.90;;;;;;1043407;28;20013;-62
2022/05/27 01:04:59;;;;;;;2.78;1.10;;;20.50;99.90;;;;;;1043597;28;20024;-63
2022/05/27 01:05:29;;;;;;;3.67;1.77;;;20.50;99.90;;;;;;1043495;28;20465;-63
2022/05/27 01:06:00;;;;;;;2.17;1.20;;;20.50;99.90;;;;;;1043626;28;20688;-63
2022/05/27 01:06:31;;;;;;;2.77;1.20;;;20.50;99.90;;;;;;1043697;28;20009;-64
2022/05/27 01:07:02;;;;;;;2.10;1.10;;;20.50;99.90;;;;;;1043739;28;20013;-65
2022/05/27 01:07:32;;;;;;;2.35;1.13;;;20.50;99.90;;;;;;1043619;28;20021;-62
2022/05/27 01:08:07;;;;;;;2.77;1.00;;;20.50;99.90;;;;;;1043649;28;20029;-62
2022/05/27 01:08:37;;;;;;;2.45;1.27;;;20.50;99.90;;;;;;1042923;28;20025;-63
2022/05/27 01:09:08;;;;;;;1.73;0.93;;;20.50;99.90;;;;;;1043617;28;20148;-63
2022/05/27 01:09:42;;;;;;;2.77;1.27;;;20.50;99.90;;;;;;1043140;28;20028;-62
2022/05/27 01:10:18;;;;;;;3.22;1.48;;;20.50;99.90;;;;;;1043322;28;20052;-62
2022/05/27 01:11:13;;;;;;;2.05;1.23;;;20.50;99.90;;;;;;1043448;28;20028;-61
2022/05/27 01:12:18;;;;;;;2.28;1.27;;;20.50;99.90;;;;;;1043186;28;20021;-63
2022/05/27 01:13:03;;;;;;;3.80;1.20;;;20.50;99.90;;;;;;1042907;28;20147;-62
2022/05/27 01:14:14;;;;;;;4.03;1.50;;;20.40;99.90;;;;;;1043425;28;20025;-63
2022/05/27 01:15:11;;;;;;;2.67;1.10;;;20.40;99.90;;;;;;1039408;28;20392;-64
2022/05/27 01:15:53;;;;;;;2.67;1.25;;;20.40;99.90;;;;;;1039373;28;20032;-63
2022/05/27 01:16:41;;;;;;;2.03;1.00;;;20.40;99.90;;;;;;1039703;28;20066;-65
2022/05/27 01:17:41;;;;;;;3.50;1.23;;;20.40;99.90;;;;;;1039617;28;20026;-63
2022/05/27 01:18:22;;;;;;;3.20;1.30;;;20.40;99.90;;;;;;1034590;28;20065;-63
2022/05/27 01:20:29;;;;;;;3.00;1.20;;;20.40;99.90;;;;;;1039259;28;20456;-65
2022/05/27 01:21:07;;;;;;;2.00;1.23;;;20.40;99.90;;;;;;1038851;28;20091;-65
2022/05/27 01:22:03;;;;;;;2.35;1.25;;;20.40;99.90;;;;;;1039447;28;20049;-65
2022/05/27 01:22:46;;;;;;;2.35;1.58;;;20.40;99.90;;;;;;1039363;28;20022;-64
2022/05/27 01:23:53;;;;;;;2.50;1.13;;;20.40;99.90;;;;;;1038834;28;20085;-62
2022/05/27 01:25:21;;;;;;;2.80;1.20;;;20.40;99.90;;;;;;1039039;28;20029;-64
2022/05/27 01:26:10;;;;;;;2.03;1.10;;;20.40;99.90;;;;;;1035005;28;20697;-63
2022/05/27 01:27:18;;;;;;;2.00;1.17;;;20.40;99.90;;;;;;1034604;28;20029;-64
2022/05/27 01:28:22;;;;;;;2.45;1.30;;;20.30;99.90;;;;;;1036922;28;20206;-64
2022/05/27 01:29:15;;;;;;;3.33;1.33;;;20.30;99.90;;;;;;1038777;28;20428;-63
2022/05/27 01:30:15;;;;;;;2.05;1.10;;;20.30;99.90;;;;;;1034503;28;20479;-63
2022/05/27 01:31:09;;;;;;;2.20;1.45;;;20.30;99.90;;;;;;1022220;29;20042;-64
2022/05/27 01:31:52;;;;;;;2.80;1.23;;;20.30;99.90;;;;;;1038570;28;20022;-64
2022/05/27 01:32:31;;;;;;;1.92;1.10;;;20.30;99.90;;;;;;1043661;28;20353;-64
2022/05/27 01:33:43;;;;;;;3.08;0.95;;;20.30;99.90;;;;;;1043424;28;20031;-63
2022/05/27 01:34:28;;;;;;;3.13;1.23;;;20.30;99.90;;;;;;1038936;28;20037;-64
2022/05/27 01:35:25;;;;;;;2.45;0.88;;;20.30;99.90;;;;;;1038696;28;20013;-63
2022/05/27 01:36:04;;;;;;;2.88;0.95;;;20.30;99.90;;;;;;1038526;28;20041;-63
2022/05/27 01:36:52;;;;;;;3.60;1.20;;;20.30;99.90;;;;;;1038556;28;20055;-64
2022/05/27 01:37:34;;;;;;;2.47;1.02;;;20.30;99.90;;;;;;1039008;28;20488;-63
2022/05/27 01:38:19;;;;;;;3.17;1.02;;;20.30;99.90;;;;;;1038692;28;20176;-64
2022/05/27 01:39:00;;;;;;;2.03;1.00;;;20.30;99.90;;;;;;1038832;28;20064;-63
2022/05/27 01:39:55;;;;;;;2.67;1.02;;;20.30;99.90;;;;;;1039063;28;20807;-63
2022/05/27 01:40:39;;;;;;;2.10;1.00;;;20.30;99.90;;;;;;1039562;28;20048;-64
2022/05/27 01:41:43;;;;;;;2.17;1.08;;;20.30;99.90;;;;;;1038586;28;20079;-64
2022/05/27 01:42:20;;;;;;;2.95;1.17;;;20.30;99.90;;;;;;1037838;28;20599;-63
2022/05/27 01:43:03;;;;;;;1.23;1.00;;;20.30;99.90;;;;;;1039334;28;20036;-65
2022/05/27 01:44:02;;;;;;;1.85;1.13;;;20.30;99.90;;;;;;1039577;28;20068;-64
2022/05/27 01:44:58;;;;;;;2.20;1.15;;;20.30;99.90;;;;;;1040709;28;20025;-62
2022/05/27 01:45:32;;;;;;;1.65;1.02;;;20.30;99.90;;;;;;1043502;28;20090;-62
2022/05/27 01:46:11;;;;;;;2.25;1.30;;;20.30;99.90;;;;;;1043329;28;20033;-62
2022/05/27 01:46:44;;;;;;;3.10;1.10;;;20.30;99.90;;;;;;1043308;28;20037;-63
2022/05/27 01:47:36;;;;;;;2.13;0.80;;;20.30;99.90;;;;;;1043385;28;20021;-62
2022/05/27 01:48:25;;;;;;;2.38;0.93;;;20.30;99.90;;;;;;1043259;28;20758;-63
2022/05/27 01:49:06;;;;;;;2.90;1.33;;;20.30;99.90;;;;;;1043234;28;20021;-64
2022/05/27 01:49:47;;;;;;;3.15;1.20;;;20.30;99.90;;;;;;1043095;28;20071;-63
2022/05/27 01:50:24;;;;;;;1.60;0.90;;;20.30;99.90;;;;;;1043461;28;20544;-62
2022/05/27 01:51:04;;;;;;;4.65;1.55;;;20.30;99.90;;;;;;1043459;28;20679;-62
2022/05/27 01:51:46;;;;;;;1.77;0.90;;;20.30;99.90;;;;;;1043362;28;20345;-62
2022/05/27 01:52:30;;;;;;;1.45;0.82;;;20.30;99.90;;;;;;1043787;28;20020;-63
2022/05/27 01:53:27;;;;;;;2.35;1.48;;;20.30;99.90;;;;;;1043470;28;20045;-63
2022/05/27 01:54:01;;;;;;;;;;;20.30;99.90;;;;;;1043413;28;20774;-62
2022/05/27 01:54:42;;;;;;;1.90;1.20;;;20.30;99.90;;;;;;1043187;28;20414;-64
2022/05/27 01:55:24;;;;;;;3.20;1.20;;;20.30;99.90;;;;;;1043375;28;20052;-62
2022/05/27 01:56:10;;;;;;;2.03;1.00;;;20.30;99.90;;;;;;1043047;28;20028;-62
2022/05/27 01:56:59;;;;;;;1.67;1.08;;;20.30;99.90;;;;;;1043437;28;20021;-64
2022/05/27 01:57:39;;;;;;;3.42;1.33;;;20.20;99.90;;;;;;1043686;28;20036;-62
2022/05/27 01:58:18;;;;;;;1.55;0.88;;;20.20;99.90;;;;;;1043182;28;20046;-63
2022/05/27 01:59:00;;;;;;;1.88;1.17;;;20.20;99.90;;;;;;1043328;28;20024;-62
2022/05/27 01:59:53;;;;;;;1.92;0.95;;;20.20;99.90;;;;;;1043781;28;20058;-63
2022/05/27 02:00:26;;;;;;;2.03;1.25;;;20.20;99.90;;;;;;1039387;28;20056;-61
2022/05/27 02:00:56;;;;;;;3.85;1.25;;;20.20;99.90;;;;;;1039175;28;20477;-63
2022/05/27 02:01:32;;;;;;;2.20;1.23;;;20.20;99.90;;;;;;1039359;28;20465;-65
2022/05/27 02:02:14;;;;;;;2.08;1.02;;;20.20;99.90;;;;;;1038711;28;20461;-63
2022/05/27 02:03:08;;;;;;;1.48;0.98;;;20.20;99.90;;;;;;1038673;28;20053;-62
2022/05/27 02:04:02;;;;;;;1.88;1.10;;;20.20;99.90;;;;;;1039047;28;20112;-62
2022/05/27 02:04:38;;;;;;;3.40;1.33;;;20.20;99.90;;;;;;1039394;28;20097;-63
2022/05/27 02:05:14;;;;;;;1.85;1.20;;;20.20;99.90;;;;;;1038798;28;20041;-63
2022/05/27 02:05:51;;;;;;;2.80;1.05;;;20.20;99.90;;;;;;1039366;28;20057;-63
2022/05/27 02:06:43;;;;;;;2.00;1.10;;;20.20;99.90;;;;;;1039008;28;20149;-63
2022/05/27 02:07:21;;;;;;;2.10;0.88;;;20.20;99.90;;;;;;1039222;28;20021;-63
2022/05/27 02:07:57;;;;;;;;;;;20.20;99.90;;;;;;1039800;28;20021;-64
2022/05/27 02:08:44;;;;;;;3.90;1.65;;;20.20;99.90;;;;;;1039157;28;19909;-63
2022/05/27 02:09:36;;;;;;;2.92;1.45;;;20.20;99.90;;;;;;1039495;28;20021;-64
2022/05/27 02:10:13;;;;;;;4.25;1.15;;;20.20;99.90;;;;;;1039632;28;20025;-63
2022/05/27 02:10:54;;;;;;;2.20;0.98;;;20.20;99.90;;;;;;1039017;28;20480;-63
2022/05/27 02:11:25;;;;;;;1.75;1.20;;;20.20;99.90;;;;;;1039169;28;20018;-61
2022/05/27 02:12:02;;;;;;;2.83;1.23;;;20.10;99.90;;;;;;1039180;28;20035;-61
2022/05/27 02:12:39;;;;;;;2.03;1.10;;;20.20;99.90;;;;;;1039362;28;20029;-62
2022/05/27 02:13:23;;;;;;;2.20;1.25;;;20.10;99.90;;;;;;1039276;28;20351;-62
2022/05/27 02:14:08;;;;;;;2.17;1.02;;;20.20;99.90;;;;;;1038414;28;20057;-63
2022/05/27 02:14:51;;;;;;;2.10;0.95;;;20.10;99.90;;;;;;1039013;28;20083;-62
2022/05/27 02:15:29;;;;;;;1.65;1.00;;;20.10;99.90;;;;;;1039060;28;20041;-65
2022/05/27 02:16:01;;;;;;;1.92;1.00;;;20.10;99.90;;;;;;1038909;28;20025;-62
2022/05/27 02:16:55;;;;;;;2.53;1.00;;;20.20;99.90;;;;;;1039420;28;20025;-62
2022/05/27 02:17:50;;;;;;;2.00;1.05;;;20.10;99.90;;;;;;1039429;28;20396;-64
2022/05/27 02:18:49;;;;;;;2.03;1.02;;;20.20;99.90;;;;;;1039061;28;20105;-63
2022/05/27 02:19:35;;;;;;;1.88;1.00;;;20.10;99.90;;;;;;1039018;28;20053;-65
2022/05/27 02:20:16;;;;;;;2.55;1.10;;;20.10;99.90;;;;;;1038816;28;20033;-61
2022/05/27 02:21:03;;;;;;;2.28;1.00;;;20.10;99.90;;;;;;1039276;28;20032;-62
2022/05/27 02:21:45;;;;;;;2.15;1.42;;;20.20;99.90;;;;;;1039567;28;20114;-63
2022/05/27 02:22:21;;;;;;;1.92;1.00;;;20.10;99.90;;;;;;1039158;28;20018;-63
2022/05/27 02:23:00;;;;;;;2.25;0.95;;;20.10;99.90;;;;;;1039497;28;20044;-63
2022/05/27 02:23:37;;;;;;;2.15;1.13;;;20.20;99.90;;;;;;1039330;28;20433;-62
2022/05/27 02:24:36;;;;;;;1.58;0.93;;;20.20;99.90;;;;;;1041757;28;20460;-62
2022/05/27 02:25:19;;;;;;;2.58;1.10;;;20.20;99.90;;;;;;1043194;28;20029;-62
2022/05/27 02:25:51;;;;;;;1.80;1.00;;;20.20;99.90;;;;;;1043487;28;20075;-63
2022/05/27 02:26:28;;;;;;;1.88;0.82;;;20.20;99.90;;;;;;1043138;28;20076;-64
2022/05/27 02:27:06;;;;;;;2.15;1.40;;;20.10;99.90;;;;;;1043326;28;20024;-63
2022/05/27 02:28:04;;;;;;;3.38;1.33;;;20.10;99.90;;;;;;1043440;28;20021;-63
2022/05/27 02:28:41;;;;;;;0.98;0.68;;;20.10;99.90;;;;;;1042888;28;20040;-63
2022/05/27 02:29:14;;;;;;;1.38;1.00;;;20.10;99.90;;;;;;1042896;28;20200;-63
2022/05/27 02:29:50;;;;;;;2.67;1.00;;;20.10;99.90;;;;;;1042914;28;20160;-62
2022/05/27 02:30:29;;;;;;;1.83;0.90;;;20.20;99.90;;;;;;1042950;28;20020;-62
2022/05/27 02:31:05;;;;;;;1.88;1.15;;;20.20;99.90;;;;;;1043230;28;20025;-61
2022/05/27 02:31:39;;;;;;;1.73;1.15;;;20.10;99.90;;;;;;1042729;28;20013;-62
2022/05/27 02:32:15;;;;;;;3.35;1.55;;;20.20;99.90;;;;;;1043197;28;20072;-63
2022/05/27 02:32:48;;;;;;;2.65;1.35;;;20.10;99.90;;;;;;1043047;28;20425;-64
2022/05/27 02:35:22;;;;;;;2.72;1.23;;;20.10;99.90;;;;;;1043504;28;20128;-63
2022/05/27 02:35:55;;;;;;;1.77;1.10;;;20.10;99.90;;;;;;1043173;28;20021;-65
2022/05/27 02:36:33;;;;;;;4.15;1.20;;;20.10;99.90;;;;;;1043104;28;20021;-64
2022/05/27 02:37:33;;;;;;;4.30;1.27;;;20.10;99.90;;;;;;1042918;28;20063;-64
2022/05/27 02:38:04;;;;;;;2.42;1.30;;;20.10;99.90;;;;;;1035958;28;20100;-62
2022/05/27 02:38:35;;;;;;;2.40;1.27;;;20.10;99.90;;;;;;1039270;28;20104;-62
2022/05/27 02:39:07;;;;;;;2.77;1.10;;;20.00;99.90;;;;;;1038948;28;20116;-63
2022/05/27 02:39:38;;;;;;;1.67;0.80;;;20.00;99.90;;;;;;1039280;28;20108;-63
2022/05/27 02:40:14;;;;;;;3.00;1.17;;;20.00;99.90;;;;;;1038921;28;20026;-62
2022/05/27 02:41:07;;;;;;;2.17;0.90;;;20.00;99.90;;;;;;1039370;28;20021;-62
2022/05/27 02:41:45;;;;;;;2.33;1.17;;;20.00;99.90;;;;;;1039192;28;20026;-64
2022/05/27 02:42:24;;;;;;;1.67;1.23;;;20.00;99.90;;;;;;1039039;28;20504;-63
2022/05/27 02:43:04;;;;;;;3.08;1.13;;;20.00;99.90;;;;;;1039062;28;20093;-62
2022/05/27 02:43:44;;;;;;;3.75;1.48;;;20.00;99.90;;;;;;1039527;28;20025;-63
2022/05/27 02:44:22;;;;;;;2.97;1.60;;;20.00;99.90;;;;;;1039632;28;20017;-62
2022/05/27 02:45:01;;;;;;;2.85;1.20;;;20.00;99.90;;;;;;1042969;28;20024;-62
2022/05/27 02:45:52;;;;;;;1.60;0.93;;;20.00;99.90;;;;;;1043027;28;20059;-64
2022/05/27 02:46:30;;;;;;;2.55;1.20;;;20.00;99.90;;;;;;1042792;28;20024;-65
2022/05/27 02:47:26;;;;;;;1.73;0.77;;;19.90;99.90;;;;;;1038971;28;20037;-65
2022/05/27 02:48:22;;;;;;;2.42;1.20;;;20.00;99.90;;;;;;1039203;28;20351;-63
2022/05/27 02:49:22;;;;;;;1.73;1.10;;;20.00;99.90;;;;;;1039252;28;20017;-61
2022/05/27 02:50:13;;;;;;;1.38;0.80;;;20.00;99.90;;;;;;1039272;28;20549;-64
2022/05/27 02:51:08;;;;;;;2.13;1.13;;;20.00;99.90;;;;;;1039062;28;20064;-64
2022/05/27 02:51:39;;;;;;;2.20;1.05;;;20.00;99.90;;;;;;1039033;28;20017;-63
2022/05/27 02:52:58;;;;;;;2.73;1.17;;;19.90;99.90;;;;;;1041206;28;20087;-62
2022/05/27 02:53:54;;;;;;;3.83;1.23;;;19.90;99.90;;;;;;1042119;28;20051;-63
2022/05/27 02:54:43;;;;;;;1.27;0.90;;;19.90;99.90;;;;;;1043113;28;20063;-63
2022/05/27 02:55:31;;;;;;;3.22;1.35;;;19.90;99.90;;;;;;1043330;28;20130;-63
2022/05/27 02:56:24;;;;;;;2.53;1.08;;;19.90;99.90;;;;;;1042986;28;20492;-63
2022/05/27 02:57:16;;;;;;;3.10;1.10;;;19.90;99.90;;;;;;1043056;28;20088;-67
2022/05/27 02:57:49;;;;;;;4.10;1.55;;;19.90;99.90;;;;;;1042928;28;20019;-63
2022/05/27 02:58:20;;;;;;;3.28;1.20;;;19.90;99.90;;;;;;1042942;28;20455;-62
2022/05/27 02:58:51;;;;;;;2.00;1.47;;;19.90;99.90;;;;;;1042758;28;20479;-63
2022/05/27 02:59:22;;;;;;;1.40;0.90;;;19.90;99.90;;;;;;1042810;28;20012;-62
2022/05/27 02:59:54;;;;;;;1.80;1.20;;;19.90;99.90;;;;;;1042808;28;20100;-62
2022/05/27 03:00:27;;;;;;;2.15;1.20;;;19.90;99.90;;;;;;1042931;28;20469;-62
2022/05/27 03:00:58;;;;;;;2.85;1.23;;;19.90;99.90;;;;;;1042538;28;20013;-64
2022/05/27 03:01:28;;;;;;;1.67;1.10;;;19.90;99.90;;;;;;1043070;28;20017;-62
2022/05/27 03:02:13;;;;;;;1.80;1.20;;;19.90;99.90;;;;;;1042521;28;20055;-64
2022/05/27 03:02:44;;;;;;;1.60;0.80;;;19.90;99.90;;;;;;1043307;28;20096;-62
2022/05/27 03:03:15;;;;;;;1.83;0.80;;;19.90;99.90;;;;;;1042891;28;20017;-63
2022/05/27 03:03:46;;;;;;;3.30;1.40;;;19.90;99.90;;;;;;1043301;28;20100;-62
2022/05/27 03:04:19;;;;;;;3.60;1.77;;;19.90;99.90;;;;;;1043096;28;20017;-62
2022/05/27 03:04:54;;;;;;;3.42;1.38;;;19.90;99.90;;;;;;1043173;28;20298;-63
2022/05/27 03:05:29;;;;;;;2.10;1.20;;;19.90;99.90;;;;;;1043063;28;20017;-62
2022/05/27 03:06:21;;;;;;;2.75;1.30;;;19.90;99.90;;;;;;1043061;28;20016;-63
2022/05/27 03:07:14;;;;;;;2.17;0.98;;;19.90;99.90;;;;;;1043022;28;20240;-63
2022/05/27 03:08:06;;;;;;;2.50;1.20;;;19.90;99.90;;;;;;1043102;28;20432;-62
2022/05/27 03:08:49;;;;;;;2.92;1.40;;;19.90;99.90;;;;;;1043104;28;20092;-63
2022/05/27 03:09:49;;;;;;;3.42;1.02;;;19.90;99.90;;;;;;1043164;28;20017;-63
2022/05/27 03:10:39;;;;;;;2.00;1.02;;;19.80;99.90;;;;;;1043157;28;20055;-63
2022/05/27 03:11:13;;;;;;;2.50;1.23;;;19.80;99.90;;;;;;1043198;28;20055;-63
2022/05/27 03:12:05;;;;;;;1.80;1.00;;;19.80;99.90;;;;;;1043004;28;20028;-63
2022/05/27 03:12:55;;;;;;;1.88;1.10;;;19.80;99.90;;;;;;1043212;28;20037;-64
2022/05/27 03:13:50;;;;;;;3.40;1.23;;;19.80;99.90;;;;;;1043086;28;20117;-63
2022/05/27 03:14:35;;;;;;;2.20;1.05;;;19.80;99.90;;;;;;1042778;28;20021;-63
2022/05/27 03:15:14;;;;;;;2.03;1.13;;;19.80;99.90;;;;;;1043004;28;20020;-65
2022/05/27 03:16:25;;;;;;;3.03;1.10;;;19.80;99.90;;;;;;1042908;28;20036;-63
2022/05/27 03:17:44;;;;;;;2.97;1.20;;;19.80;99.90;;;;;;1041634;28;20060;-64
2022/05/27 03:18:42;;;;;;;3.35;1.33;;;19.80;99.90;;;;;;1038452;28;20021;-63
2022/05/27 03:19:30;;;;;;;1.75;0.77;;;19.80;99.90;;;;;;1038420;28;20080;-63
2022/05/27 03:20:11;;;;;;;2.83;0.93;;;19.80;99.90;;;;;;1042607;28;20570;-64
2022/05/27 03:20:56;;;;;;;3.85;1.20;;;19.80;99.90;;;;;;1038801;28;20115;-64
2022/05/27 03:21:42;;;;;;;2.83;0.93;;;19.80;99.90;;;;;;1038738;28;20060;-62
2022/05/27 03:22:22;;;;;;;2.50;1.20;;;19.80;99.90;;;;;;1038480;28;20498;-63
2022/05/27 03:23:13;;;;;;;1.63;0.88;;;19.80;99.90;;;;;;1038962;28;20013;-62
2022/05/27 03:24:21;;;;;;;3.80;1.10;;;19.80;99.90;;;;;;1039193;28;20049;-63
2022/05/27 03:25:01;;;;;;;1.38;1.02;;;19.80;99.90;;;;;;1039077;28;20014;-64
2022/05/27 03:25:56;;;;;;;2.97;1.20;;;19.80;99.90;;;;;;1039097;28;20005;-64
2022/05/27 03:26:50;;;;;;;3.22;1.00;;;19.80;99.90;;;;;;1038408;28;20056;-63
2022/05/27 03:27:44;;;;;;;1.40;0.90;;;19.80;99.90;;;;;;1038500;28;20021;-64
2022/05/27 03:28:38;;;;;;;3.00;1.10;;;19.80;99.90;;;;;;1038722;28;20029;-63
2022/05/27 03:29:38;;;;;;;2.65;1.40;;;19.70;99.90;;;;;;1038510;28;20675;-63
2022/05/27 03:30:22;;;;;;;2.60;1.05;;;19.70;99.90;;;;;;1038575;28;20164;-64
2022/05/27 03:31:40;;;;;;;1.77;1.10;;;19.70;99.90;;;;;;1038841;28;20020;-63